Time;durP1;ratioP1;P1;durP2;ratioP2;P2;SDS_P1;SDS_P2;PMS_P1;PMS_P2;Temp;Humidity;BMP_temperature;BMP_pressure;BME280_temperature;BME280_humidity;BME280_pressure;Samples;Min_cycle;Max_cycle;Signal;HPM_P1;HPM_P2
2022/07/23 00:01:01;;;;;;;8.43;6.37;;;21.70;99.90;;;;;;4996326;28;20189;-77
2022/07/23 00:03:27;;;;;;;7.30;6.23;;;21.50;99.90;;;;;;4996085;28;20258;-76
2022/07/23 00:05:52;;;;;;;6.30;5.70;;;21.60;99.90;;;;;;5013907;28;20553;-78
2022/07/23 00:08:18;;;;;;;8.13;6.17;;;21.60;99.90;;;;;;5013743;28;20621;-77
2022/07/23 00:10:44;;;;;;;7.43;6.47;;;21.70;99.90;;;;;;5013714;28;20189;-77
2022/07/23 00:13:09;;;;;;;9.00;6.57;;;21.70;99.90;;;;;;5006194;28;20246;-78
2022/07/23 00:15:35;;;;;;;6.63;5.83;;;21.70;99.90;;;;;;5036506;28;20197;-78
2022/07/23 00:18:01;;;;;;;8.47;5.80;;;21.80;99.90;;;;;;5032991;28;20217;-79
2022/07/23 00:20:27;;;;;;;7.40;6.10;;;21.80;99.90;;;;;;5036623;28;20205;-79
2022/07/23 00:22:54;;;;;;;7.07;5.50;;;21.90;99.90;;;;;;4985149;28;20655;-77
2022/07/23 00:25:22;;;;;;;7.90;5.60;;;22.00;99.90;;;;;;4979168;28;20201;-76
2022/07/23 00:27:48;;;;;;;10.07;5.87;;;22.30;99.90;;;;;;4994769;28;20461;-77
2022/07/23 00:30:14;;;;;;;7.10;5.30;;;22.30;99.90;;;;;;4994891;28;20425;-77
2022/07/23 00:32:51;;;;;;;6.80;5.47;;;22.30;99.90;;;;;;4994683;28;20185;-76
2022/07/23 00:35:20;;;;;;;8.80;5.43;;;22.30;99.90;;;;;;5012011;28;20509;-76
2022/07/23 00:37:46;;;;;;;6.57;6.03;;;22.20;99.90;;;;;;5013260;28;20520;-77
2022/07/23 00:40:12;;;;;;;6.20;5.60;;;21.90;99.90;;;;;;5011966;28;20535;-76
2022/07/23 00:42:38;;;;;;;6.97;6.27;;;21.90;99.90;;;;;;5011931;28;20649;-77
2022/07/23 00:45:05;;;;;;;7.13;5.97;;;21.80;99.90;;;;;;5012111;28;20417;-77
2022/07/23 00:47:31;;;;;;;9.47;6.37;;;21.70;99.90;;;;;;5010927;28;20445;-77
2022/07/23 00:49:57;;;;;;;7.73;6.93;;;21.70;99.90;;;;;;5010992;28;20515;-77
2022/07/23 00:52:23;;;;;;;7.33;6.60;;;21.70;99.90;;;;;;5010875;28;20567;-77
2022/07/23 00:54:49;;;;;;;8.27;7.47;;;21.60;99.90;;;;;;4993219;28;20198;-77
2022/07/23 00:57:15;;;;;;;8.90;6.83;;;21.60;99.90;;;;;;4993116;28;20278;-77
2022/07/23 00:59:41;;;;;;;8.10;6.57;;;21.60;99.90;;;;;;5010661;28;20452;-77
2022/07/23 01:02:07;;;;;;;8.33;6.80;;;21.60;99.90;;;;;;4993164;28;20425;-78
2022/07/23 01:04:33;;;;;;;9.60;7.17;;;21.50;99.90;;;;;;4993149;28;20425;-77
2022/07/23 01:06:59;;;;;;;10.47;7.30;;;21.50;99.90;;;;;;5010543;28;20198;-77
2022/07/23 01:09:25;;;;;;;10.33;7.00;;;21.50;99.90;;;;;;5010292;28;20523;-77
2022/07/23 01:11:54;;;;;;;11.07;6.93;;;21.50;99.90;;;;;;4992788;28;20551;-77
2022/07/23 01:14:19;;;;;;;7.40;6.70;;;21.40;99.90;;;;;;5010465;28;20431;-77
2022/07/23 01:16:48;;;;;;;6.97;6.37;;;21.20;99.90;;;;;;4976933;28;20474;-76
2022/07/23 01:19:14;;;;;;;7.20;6.50;;;21.20;99.90;;;;;;4992931;28;20640;-76
2022/07/23 01:21:47;;;;;;;9.03;6.90;;;21.00;99.90;;;;;;4992620;28;20527;-76
2022/07/23 01:24:13;;;;;;;11.50;6.80;;;20.70;99.90;;;;;;4992912;28;20425;-76
2022/07/23 01:26:43;;;;;;;7.40;6.00;;;20.60;99.90;;;;;;4992723;28;20435;-76
2022/07/23 01:29:09;;;;;;;8.13;6.30;;;20.50;99.90;;;;;;5010509;28;20420;-76
2022/07/23 01:31:35;;;;;;;8.60;7.07;;;20.60;99.90;;;;;;4992699;28;20431;-76
2022/07/23 01:34:01;;;;;;;7.33;6.67;;;20.40;99.90;;;;;;4992621;28;20192;-76
2022/07/23 01:36:27;;;;;;;10.80;7.00;;;20.40;99.90;;;;;;5010557;28;20474;-76
2022/07/23 01:38:53;;;;;;;11.33;6.90;;;20.50;99.90;;;;;;5010465;28;20534;-76
2022/07/23 01:41:18;;;;;;;6.80;6.10;;;20.40;99.90;;;;;;5010641;28;20420;-76
2022/07/23 01:43:44;;;;;;;9.20;7.57;;;20.50;99.90;;;;;;4993309;28;20189;-76
2022/07/23 01:46:10;;;;;;;9.00;7.50;;;20.50;99.90;;;;;;4993103;28;20237;-76
2022/07/23 01:48:35;;;;;;;7.70;7.00;;;20.60;99.90;;;;;;4994077;28;20213;-76
2022/07/23 01:51:02;;;;;;;7.30;6.60;;;20.50;99.90;;;;;;5010987;28;20560;-77
2022/07/23 01:53:28;;;;;;;8.00;7.07;;;20.50;99.90;;;;;;4992904;28;20187;-76
2022/07/23 01:55:53;;;;;;;7.77;6.97;;;20.30;99.90;;;;;;5010260;28;20424;-76
2022/07/23 01:58:19;;;;;;;10.03;6.67;;;20.40;99.90;;;;;;4976321;28;20325;-76
2022/07/23 02:00:44;;;;;;;6.93;6.07;;;20.40;99.90;;;;;;4992689;28;20191;-77
2022/07/23 02:03:10;;;;;;;7.00;6.30;;;20.50;99.90;;;;;;4992263;28;20331;-77
2022/07/23 02:05:36;;;;;;;8.60;7.30;;;20.70;99.90;;;;;;5009948;28;20195;-77
2022/07/23 02:08:01;;;;;;;6.53;5.93;;;20.90;99.90;;;;;;4992210;28;20274;-77
2022/07/23 02:10:27;;;;;;;6.70;6.10;;;20.90;99.90;;;;;;5009728;28;20180;-77
2022/07/23 02:12:53;;;;;;;11.30;6.37;;;21.00;99.90;;;;;;5009602;28;20250;-77
2022/07/23 02:15:19;;;;;;;6.07;5.57;;;21.00;99.90;;;;;;5009414;28;20435;-76
2022/07/23 02:17:45;;;;;;;6.50;5.50;;;21.10;99.90;;;;;;5009356;28;20486;-77
2022/07/23 02:20:11;;;;;;;6.60;6.00;;;21.20;99.90;;;;;;5009370;28;20421;-77
2022/07/23 02:22:38;;;;;;;7.53;6.83;;;21.30;99.90;;;;;;5009109;28;20185;-77
2022/07/23 02:25:05;;;;;;;6.90;6.20;;;21.30;99.90;;;;;;4991415;28;20433;-77
2022/07/23 02:27:30;;;;;;;8.57;6.20;;;21.30;99.90;;;;;;5009130;28;21006;-77
2022/07/23 02:29:57;;;;;;;8.50;6.70;;;21.30;99.90;;;;;;4975458;28;20440;-78
2022/07/23 02:32:23;;;;;;;6.97;6.27;;;21.30;99.90;;;;;;4991890;28;21014;-76
2022/07/23 02:34:49;;;;;;;8.50;7.10;;;21.30;99.90;;;;;;5009304;28;20464;-78
2022/07/23 02:37:14;;;;;;;8.87;6.40;;;21.30;99.90;;;;;;4991446;28;20481;-78
2022/07/23 02:39:40;;;;;;;8.47;7.10;;;21.30;99.90;;;;;;4991631;28;20325;-77
2022/07/23 02:42:06;;;;;;;11.97;6.90;;;21.30;99.90;;;;;;4991438;28;20213;-77
2022/07/23 02:44:31;;;;;;;8.00;7.07;;;21.20;99.90;;;;;;5009311;28;20193;-77
2022/07/23 02:46:57;;;;;;;10.97;7.80;;;21.20;99.90;;;;;;5009541;28;20294;-77
2022/07/23 02:49:23;;;;;;;7.63;6.87;;;21.10;99.90;;;;;;4992097;28;20285;-78
2022/07/23 02:51:48;;;;;;;10.27;7.30;;;21.00;99.90;;;;;;5009834;28;20193;-77
2022/07/23 02:54:14;;;;;;;8.13;6.70;;;21.00;99.90;;;;;;5009922;28;20185;-77
2022/07/23 02:56:39;;;;;;;11.63;6.70;;;21.00;99.90;;;;;;5010420;28;20186;-78
2022/07/23 02:59:05;;;;;;;11.13;7.13;;;21.00;99.90;;;;;;4996299;28;20563;-78
2022/07/23 03:01:31;;;;;;;9.70;7.37;;;21.00;99.90;;;;;;5013943;28;20192;-78
2022/07/23 03:03:56;;;;;;;7.37;6.70;;;20.90;99.90;;;;;;5013697;28;20212;-78
2022/07/23 03:06:22;;;;;;;7.60;6.90;;;20.60;99.90;;;;;;5013782;28;20192;-78
2022/07/23 03:08:48;;;;;;;7.70;5.77;;;20.50;99.90;;;;;;5013540;28;20239;-77
2022/07/23 03:11:14;;;;;;;8.00;7.30;;;20.50;99.90;;;;;;5013451;28;20196;-77
2022/07/23 03:13:40;;;;;;;7.97;7.17;;;20.50;99.90;;;;;;4979735;28;20435;-76
2022/07/23 03:16:07;;;;;;;8.00;7.20;;;20.50;99.90;;;;;;5013368;28;20212;-75
2022/07/23 03:18:33;;;;;;;8.03;7.13;;;20.50;99.90;;;;;;5013266;28;20476;-76
2022/07/23 03:20:58;;;;;;;10.20;7.10;;;20.50;99.90;;;;;;5014087;28;20420;-75
2022/07/23 03:23:24;;;;;;;9.27;7.03;;;20.40;99.90;;;;;;5013127;28;20443;-75
2022/07/23 03:25:50;;;;;;;16.37;7.67;;;20.40;99.90;;;;;;4995215;28;20541;-75
2022/07/23 03:28:17;;;;;;;7.60;6.90;;;20.30;99.90;;;;;;5012550;28;20714;-76
2022/07/23 03:30:45;;;;;;;9.30;6.90;;;20.20;99.90;;;;;;5012469;28;20185;-77
2022/07/23 03:33:10;;;;;;;8.33;7.17;;;20.20;99.90;;;;;;5012449;28;20428;-76
2022/07/23 03:35:36;;;;;;;13.53;6.27;;;20.20;99.90;;;;;;4995285;28;20442;-76
2022/07/23 03:38:01;;;;;;;7.57;6.83;;;20.30;99.90;;;;;;4995153;28;20290;-77
2022/07/23 03:40:27;;;;;;;7.80;6.57;;;20.40;99.90;;;;;;5012884;28;20206;-77
2022/07/23 03:42:53;;;;;;;8.83;6.80;;;20.40;99.90;;;;;;4979207;28;20189;-77
2022/07/23 03:45:18;;;;;;;7.13;6.53;;;20.40;99.90;;;;;;5012916;28;20256;-74
2022/07/23 03:47:44;;;;;;;8.03;6.40;;;20.40;99.90;;;;;;5013923;28;20239;-76
2022/07/23 03:50:10;;;;;;;7.40;6.60;;;20.30;99.90;;;;;;4995260;28;20651;-77
2022/07/23 03:52:36;;;;;;;8.00;7.10;;;20.30;99.90;;;;;;5012499;28;20665;-76
2022/07/23 03:55:02;;;;;;;8.90;8.00;;;20.10;99.90;;;;;;5012810;28;20209;-76
2022/07/23 03:57:28;;;;;;;8.70;7.80;;;19.80;99.90;;;;;;4994740;28;20232;-76
2022/07/23 03:59:54;;;;;;;7.90;7.17;;;19.90;99.90;;;;;;4994587;28;20423;-75
2022/07/23 04:02:20;;;;;;;9.90;7.17;;;19.80;99.90;;;;;;4978459;28;20456;-73
2022/07/23 04:04:46;;;;;;;9.67;7.10;;;19.80;99.90;;;;;;4994901;28;20665;-74
2022/07/23 04:07:12;;;;;;;7.50;6.80;;;20.00;99.90;;;;;;4994089;28;20237;-77
2022/07/23 04:09:40;;;;;;;8.17;7.37;;;20.00;99.90;;;;;;5012034;28;20420;-76
2022/07/23 04:12:06;;;;;;;10.67;8.23;;;20.00;99.90;;;;;;5012036;28;20427;-76
2022/07/23 04:14:33;;;;;;;16.70;8.07;;;20.10;99.90;;;;;;5011831;28;20937;-76
2022/07/23 04:16:59;;;;;;;13.83;7.93;;;20.00;99.90;;;;;;4994025;28;21291;-76
2022/07/23 04:19:24;;;;;;;8.40;7.47;;;20.00;99.90;;;;;;5011815;28;20425;-76
2022/07/23 04:21:50;;;;;;;9.77;7.50;;;20.00;99.90;;;;;;4994046;28;20473;-77
2022/07/23 04:24:16;;;;;;;8.40;7.70;;;20.10;99.90;;;;;;4993920;28;20177;-78
2022/07/23 04:26:42;;;;;;;8.83;7.97;;;20.10;99.90;;;;;;4977339;28;20619;-77
2022/07/23 04:29:07;;;;;;;8.77;7.67;;;20.10;99.90;;;;;;5011065;28;20184;-77
2022/07/23 04:31:33;;;;;;;9.30;8.23;;;20.20;99.90;;;;;;4993946;28;20188;-79
2022/07/23 04:33:58;;;;;;;9.57;7.63;;;20.20;99.90;;;;;;4994031;28;20178;-78
2022/07/23 04:36:24;;;;;;;9.40;8.00;;;20.20;99.90;;;;;;4993579;28;20713;-77
2022/07/23 04:38:50;;;;;;;9.67;8.67;;;20.30;99.90;;;;;;4976858;28;20224;-77
2022/07/23 04:41:15;;;;;;;10.23;7.97;;;20.20;99.90;;;;;;4993111;28;20209;-78
2022/07/23 04:43:41;;;;;;;14.03;9.63;;;20.10;99.90;;;;;;4977145;28;20243;-78
2022/07/23 04:46:07;;;;;;;8.43;7.63;;;20.10;99.90;;;;;;4977449;28;20804;-78
2022/07/23 04:48:32;;;;;;;10.20;8.40;;;20.20;99.90;;;;;;4993099;28;20212;-76
2022/07/23 04:50:58;;;;;;;9.87;8.77;;;20.20;99.90;;;;;;4992990;28;20185;-76
2022/07/23 04:53:24;;;;;;;13.33;8.90;;;20.30;99.90;;;;;;5011357;28;20702;-75
2022/07/23 04:55:49;;;;;;;8.13;7.33;;;20.20;99.90;;;;;;5010717;28;20239;-75
2022/07/23 04:58:15;;;;;;;11.93;7.80;;;20.10;99.90;;;;;;4992860;28;20271;-75
2022/07/23 05:00:41;;;;;;;11.37;8.70;;;20.10;99.90;;;;;;4992762;28;20213;-76
2022/07/23 05:03:06;;;;;;;9.90;8.70;;;20.10;99.90;;;;;;5010878;28;20200;-76
2022/07/23 05:05:32;;;;;;;10.20;7.90;;;20.10;99.90;;;;;;4992663;28;20204;-76
2022/07/23 05:07:58;;;;;;;9.20;7.80;;;20.10;99.90;;;;;;5010355;28;20204;-76
2022/07/23 05:10:23;;;;;;;8.90;7.80;;;20.30;99.90;;;;;;5010244;28;20278;-76
2022/07/23 05:12:49;;;;;;;11.80;9.27;;;20.30;99.90;;;;;;4992495;28;20264;-77
2022/07/23 05:15:15;;;;;;;16.90;7.70;;;20.30;99.90;;;;;;4992428;28;20196;-76
2022/07/23 05:17:40;;;;;;;8.63;7.70;;;20.50;99.90;;;;;;5010152;28;20220;-76
2022/07/23 05:20:06;;;;;;;8.70;7.87;;;20.70;99.90;;;;;;4991673;28;20192;-76
2022/07/23 05:22:32;;;;;;;9.83;7.90;;;20.80;99.90;;;;;;5010138;28;20196;-75
2022/07/23 05:24:58;;;;;;;8.47;7.67;;;20.80;99.90;;;;;;5010187;28;20420;-75
2022/07/23 05:27:24;;;;;;;9.80;7.30;;;20.80;99.90;;;;;;5009966;28;20566;-76
2022/07/23 05:29:49;;;;;;;9.03;7.50;;;20.90;99.90;;;;;;4992483;28;20204;-74
2022/07/23 05:32:15;;;;;;;9.07;8.03;;;20.90;99.90;;;;;;4992078;28;20231;-75
2022/07/23 05:34:41;;;;;;;8.83;7.93;;;20.90;99.90;;;;;;4992107;28;20185;-75
2022/07/23 05:37:06;;;;;;;10.50;8.40;;;20.90;99.90;;;;;;4991854;28;20221;-75
2022/07/23 05:39:32;;;;;;;11.03;7.57;;;21.00;99.90;;;;;;5010240;28;20224;-78
2022/07/23 05:41:57;;;;;;;8.37;7.57;;;20.90;99.90;;;;;;4976011;28;20188;-77
2022/07/23 05:44:23;;;;;;;8.07;7.27;;;21.00;99.90;;;;;;5009725;28;20186;-78
2022/07/23 05:46:49;;;;;;;8.00;7.20;;;20.90;99.90;;;;;;4991923;28;20205;-78
2022/07/23 05:49:14;;;;;;;10.50;7.53;;;20.90;99.90;;;;;;4975605;28;20181;-78
2022/07/23 05:51:40;;;;;;;10.23;7.90;;;20.90;99.90;;;;;;4992213;28;20280;-78
2022/07/23 05:54:06;;;;;;;8.13;7.33;;;20.90;99.90;;;;;;5011013;28;20264;-77
2022/07/23 05:56:31;;;;;;;10.07;6.20;;;20.90;99.90;;;;;;4991760;28;20287;-77
2022/07/23 05:58:57;;;;;;;10.60;7.60;;;21.00;99.90;;;;;;4991011;28;20220;-77
2022/07/23 06:01:23;;;;;;;7.93;7.13;;;21.00;99.90;;;;;;4975364;28;20189;-77
2022/07/23 06:03:48;;;;;;;9.33;6.80;;;21.00;99.90;;;;;;4992311;28;20216;-77
2022/07/23 06:06:14;;;;;;;9.83;7.40;;;21.20;99.90;;;;;;5009425;28;20227;-77
2022/07/23 06:08:39;;;;;;;8.73;7.83;;;21.40;99.90;;;;;;4991693;28;20259;-77
2022/07/23 06:11:05;;;;;;;8.53;7.43;;;21.60;99.90;;;;;;5009500;28;20671;-77
2022/07/23 06:13:31;;;;;;;9.23;6.97;;;21.80;99.90;;;;;;4992080;28;20193;-77
2022/07/23 06:15:56;;;;;;;8.10;7.30;;;22.00;99.90;;;;;;4991800;28;20203;-77
2022/07/23 06:18:22;;;;;;;8.10;7.37;;;22.30;99.90;;;;;;5009333;28;20210;-77
2022/07/23 06:20:48;;;;;;;11.77;7.57;;;22.50;99.90;;;;;;4992023;28;20198;-77
2022/07/23 06:23:13;;;;;;;8.40;6.83;;;22.70;99.90;;;;;;4992023;28;20244;-77
2022/07/23 06:25:39;;;;;;;8.07;6.50;;;22.90;99.90;;;;;;5009477;28;20191;-77
2022/07/23 06:28:05;;;;;;;8.77;7.40;;;23.00;99.90;;;;;;5009263;28;20258;-77
2022/07/23 06:30:30;;;;;;;8.20;7.40;;;23.10;99.90;;;;;;4975931;28;20281;-77
2022/07/23 06:32:56;;;;;;;7.30;6.60;;;23.20;99.90;;;;;;4975660;28;20198;-77
2022/07/23 06:35:21;;;;;;;7.33;6.63;;;23.30;99.90;;;;;;4975435;28;20695;-77
2022/07/23 06:37:47;;;;;;;17.23;8.10;;;23.50;99.90;;;;;;4991529;28;20578;-77
2022/07/23 06:40:13;;;;;;;10.60;8.10;;;23.40;99.90;;;;;;4991254;28;20663;-77
2022/07/23 06:42:41;;;;;;;8.10;7.00;;;23.40;99.90;;;;;;4991289;28;20276;-77
2022/07/23 06:45:08;;;;;;;9.80;7.60;;;23.50;99.90;;;;;;4990781;28;20191;-78
2022/07/23 06:47:33;;;;;;;8.10;6.73;;;23.50;99.90;;;;;;5007589;28;20485;-77
2022/07/23 06:49:59;;;;;;;8.23;7.20;;;23.60;99.90;;;;;;4989836;28;20465;-77
2022/07/23 06:52:25;;;;;;;7.57;6.73;;;23.70;99.90;;;;;;4989596;28;20662;-77
2022/07/23 06:54:52;;;;;;;7.47;6.73;;;23.90;99.90;;;;;;4990096;28;20215;-79
2022/07/23 06:57:18;;;;;;;9.87;7.40;;;24.00;99.90;;;;;;5007405;28;20485;-77
2022/07/23 06:59:43;;;;;;;7.87;6.60;;;24.10;99.90;;;;;;4989801;28;20785;-77
2022/07/23 07:02:09;;;;;;;9.27;8.10;;;24.20;99.90;;;;;;5007667;28;20224;-77
2022/07/23 07:04:35;;;;;;;7.40;6.70;;;24.20;99.90;;;;;;4989639;28;20195;-77
2022/07/23 07:07:01;;;;;;;7.47;6.87;;;24.30;99.90;;;;;;5008072;28;20501;-77
2022/07/23 07:09:27;;;;;;;8.10;7.30;;;24.40;99.90;;;;;;4989609;28;20449;-77
2022/07/23 07:11:52;;;;;;;20.43;7.77;;;24.40;99.90;;;;;;5007541;28;20670;-77
2022/07/23 07:14:18;;;;;;;9.00;7.00;;;24.50;99.90;;;;;;4990657;28;20700;-77
2022/07/23 07:16:43;;;;;;;8.00;7.17;;;24.40;99.90;;;;;;5007544;28;20195;-77
2022/07/23 07:19:09;;;;;;;7.90;7.20;;;24.30;99.90;;;;;;4989511;28;20192;-76
2022/07/23 07:21:35;;;;;;;9.23;7.80;;;24.40;99.90;;;;;;4990734;28;20283;-76
2022/07/23 07:24:01;;;;;;;8.13;7.17;;;24.40;99.90;;;;;;4989446;28;20226;-77
2022/07/23 07:26:27;;;;;;;8.37;7.27;;;24.50;99.90;;;;;;5007609;28;20434;-77
2022/07/23 07:28:53;;;;;;;7.87;6.93;;;24.70;99.90;;;;;;5007287;28;20213;-76
2022/07/23 07:31:18;;;;;;;8.17;7.10;;;24.70;99.90;;;;;;4990200;28;20188;-76
2022/07/23 07:33:44;;;;;;;8.50;6.70;;;24.70;99.90;;;;;;5007486;28;20425;-76
2022/07/23 07:36:10;;;;;;;9.40;6.90;;;24.70;99.90;;;;;;5007409;28;20723;-76
2022/07/23 07:38:36;;;;;;;8.50;7.70;;;24.70;99.90;;;;;;4973171;28;20223;-76
2022/07/23 07:41:01;;;;;;;7.20;6.50;;;24.70;99.90;;;;;;4973750;28;20193;-76
2022/07/23 07:43:27;;;;;;;8.63;7.40;;;24.70;99.90;;;;;;4993603;28;20547;-79
2022/07/23 07:45:53;;;;;;;7.27;6.67;;;24.80;99.90;;;;;;4994985;28;20196;-76
2022/07/23 07:48:18;;;;;;;7.87;7.17;;;24.80;99.90;;;;;;4994756;28;20204;-76
2022/07/23 07:50:44;;;;;;;7.70;6.40;;;24.90;99.90;;;;;;5011741;28;20653;-76
2022/07/23 07:53:10;;;;;;;9.13;6.67;;;24.90;99.90;;;;;;5011033;28;20184;-76
2022/07/23 07:55:36;;;;;;;9.30;8.33;;;25.00;99.90;;;;;;4993159;28;20192;-76
2022/07/23 07:58:01;;;;;;;11.17;6.97;;;25.00;99.90;;;;;;4993115;28;20522;-75
2022/07/23 08:00:27;;;;;;;8.70;7.80;;;25.00;99.90;;;;;;4993067;28;20185;-75
2022/07/23 08:02:54;;;;;;;8.10;7.30;;;25.00;99.90;;;;;;4992877;28;20189;-76
2022/07/23 08:05:25;;;;;;;8.80;7.90;;;25.10;99.90;;;;;;5010483;28;20939;-76
2022/07/23 08:07:51;;;;;;;7.60;6.80;;;25.20;99.90;;;;;;4993445;28;20448;-76
2022/07/23 08:10:17;;;;;;;9.13;7.50;;;25.40;99.90;;;;;;5011860;28;20925;-76
2022/07/23 08:12:49;;;;;;;8.30;7.00;;;25.50;99.90;;;;;;4995176;28;20415;-76
2022/07/23 08:15:16;;;;;;;8.77;7.87;;;25.70;99.90;;;;;;4994519;28;20415;-76
2022/07/23 08:17:43;;;;;;;8.30;7.50;;;25.70;99.90;;;;;;5010886;28;20471;-75
2022/07/23 08:20:11;;;;;;;10.30;7.70;;;25.80;99.90;;;;;;5010277;28;20499;-76
2022/07/23 08:22:49;;;;;;;8.40;7.60;;;25.80;99.90;;;;;;5010082;28;20467;-75
2022/07/23 08:25:16;;;;;;;8.97;8.10;;;25.80;99.90;;;;;;5011040;28;20454;-75
2022/07/23 08:27:42;;;;;;;9.30;7.53;;;25.80;99.90;;;;;;5010361;28;20550;-75
2022/07/23 08:30:08;;;;;;;9.03;7.50;;;25.80;99.90;;;;;;5010133;28;20503;-76
2022/07/23 08:32:48;;;;;;;8.07;7.37;;;26.00;99.90;;;;;;5010238;28;20185;-76
2022/07/23 08:35:14;;;;;;;10.03;7.10;;;26.00;99.90;;;;;;5010077;28;20931;-76
2022/07/23 08:37:39;;;;;;;8.17;7.40;;;26.10;99.90;;;;;;4992279;28;20570;-76
2022/07/23 08:40:05;;;;;;;7.90;7.20;;;26.20;99.90;;;;;;5009795;28;20717;-76
2022/07/23 08:42:35;;;;;;;10.27;7.70;;;26.20;99.90;;;;;;4992284;28;20185;-76
2022/07/23 08:45:02;;;;;;;13.30;7.80;;;26.40;99.90;;;;;;4992323;28;20929;-76
2022/07/23 08:47:29;;;;;;;9.20;7.33;;;26.50;99.90;;;;;;5009684;28;20860;-76
2022/07/23 08:49:58;;;;;;;10.10;8.43;;;26.60;99.90;;;;;;5010036;28;20423;-76
2022/07/23 08:52:24;;;;;;;8.53;7.83;;;26.70;99.90;;;;;;4976328;28;20428;-76
2022/07/23 08:54:51;;;;;;;8.30;7.60;;;27.00;99.90;;;;;;4990889;28;20949;-76
2022/07/23 08:57:16;;;;;;;15.17;7.87;;;27.20;99.90;;;;;;4992067;28;20471;-76
2022/07/23 08:59:42;;;;;;;7.83;7.13;;;27.40;99.90;;;;;;4995784;28;20421;-78
2022/07/23 09:02:08;;;;;;;18.00;8.63;;;27.40;99.90;;;;;;4986871;28;20288;-78
2022/07/23 09:04:34;;;;;;;7.37;6.77;;;27.40;99.90;;;;;;5005229;28;20194;-78
2022/07/23 09:07:02;;;;;;;9.67;7.80;;;27.40;99.90;;;;;;4988646;28;20255;-79
2022/07/23 09:09:30;;;;;;;8.30;7.60;;;27.60;99.90;;;;;;5004518;28;20416;-79
2022/07/23 09:12:07;;;;;;;8.90;7.67;;;27.50;99.90;;;;;;5007473;28;20428;-77
2022/07/23 09:14:51;;;;;;;9.13;7.93;;;27.30;99.90;;;;;;4999058;28;20411;-78
2022/07/23 09:17:18;;;;;;;8.17;7.37;;;27.10;99.90;;;;;;4982807;28;20508;-78
2022/07/23 09:19:45;;;;;;;7.67;6.97;;;27.10;99.90;;;;;;5017459;28;20411;-78
2022/07/23 09:22:26;;;;;;;8.10;7.30;;;27.40;99.90;;;;;;5000620;28;20423;-78
2022/07/23 09:25:07;;;;;;;9.07;8.17;;;27.70;99.90;;;;;;4982925;28;20477;-80
2022/07/23 09:27:56;;;;;;;8.20;7.47;;;28.00;99.90;;;;;;5000514;28;20436;-78
2022/07/23 09:30:23;;;;;;;9.57;6.97;;;28.10;99.90;;;;;;5011998;28;20423;-76
2022/07/23 09:33:07;;;;;;;8.10;7.30;;;28.30;99.90;;;;;;5011852;28;20416;-76
2022/07/23 09:35:52;;;;;;;9.37;8.20;;;28.20;99.90;;;;;;4992997;28;20430;-76
2022/07/23 09:38:24;;;;;;;9.57;7.80;;;27.90;99.90;;;;;;5010125;28;20467;-76
2022/07/23 09:41:10;;;;;;;10.40;7.43;;;27.80;99.90;;;;;;4985025;28;20456;-76
2022/07/23 09:43:36;;;;;;;10.50;7.33;;;27.70;99.90;;;;;;5010498;28;20438;-76
2022/07/23 09:46:23;;;;;;;8.03;7.10;;;27.70;99.90;;;;;;5009798;28;20799;-76
2022/07/23 09:48:48;;;;;;;8.87;7.90;;;27.70;99.90;;;;;;4975820;28;20271;-76
2022/07/23 09:51:18;;;;;;;6.83;6.23;;;27.80;99.80;;;;;;5010090;28;20479;-76
2022/07/23 09:53:43;;;;;;;9.07;7.00;;;28.10;99.90;;;;;;4992365;28;20879;-76
2022/07/23 09:56:13;;;;;;;7.00;6.40;;;28.10;99.90;;;;;;4990994;28;20421;-76
2022/07/23 09:58:46;;;;;;;11.07;8.73;;;28.00;99.90;;;;;;4990737;28;20328;-76
2022/07/23 10:01:12;;;;;;;8.87;8.07;;;28.20;99.90;;;;;;5008827;28;21113;-76
2022/07/23 10:03:40;;;;;;;8.10;7.27;;;28.30;99.90;;;;;;5008666;28;20452;-76
2022/07/23 10:06:07;;;;;;;8.53;7.60;;;28.60;98.40;;;;;;5008576;28;20430;-76
2022/07/23 10:08:34;;;;;;;7.90;7.10;;;28.80;98.90;;;;;;4990813;28;20451;-76
2022/07/23 10:11:01;;;;;;;8.03;7.23;;;29.20;97.90;;;;;;4991756;28;20428;-77
2022/07/23 10:16:12;;;;;;;9.97;7.60;;;29.20;97.00;;;;;;5009631;28;20521;-76
2022/07/23 10:18:38;;;;;;;7.70;7.00;;;29.20;98.30;;;;;;5008420;28;20479;-76
2022/07/23 10:21:08;;;;;;;8.30;6.90;;;29.10;98.00;;;;;;5009335;28;20427;-76
2022/07/23 10:23:57;;;;;;;16.17;7.47;;;28.80;98.20;;;;;;4990996;28;20427;-76
2022/07/23 10:26:48;;;;;;;8.70;7.90;;;28.60;99.20;;;;;;5008536;28;20538;-76
2022/07/23 10:29:40;;;;;;;8.40;6.93;;;28.50;98.10;;;;;;5008632;28;20918;-76
2022/07/23 10:32:21;;;;;;;7.90;7.20;;;28.40;98.70;;;;;;5008778;28;20430;-76
2022/07/23 10:34:55;;;;;;;8.57;7.87;;;28.60;99.10;;;;;;5008611;28;20420;-76
2022/07/23 10:37:40;;;;;;;8.20;7.00;;;28.80;99.90;;;;;;4991022;28;20499;-76
2022/07/23 10:40:18;;;;;;;10.53;7.27;;;29.00;98.70;;;;;;4990695;28;20459;-76
2022/07/23 10:42:48;;;;;;;9.37;7.17;;;28.90;97.60;;;;;;5009323;28;20425;-76
2022/07/23 10:45:35;;;;;;;9.83;7.10;;;28.90;98.40;;;;;;5009068;28;20927;-77
2022/07/23 10:48:17;;;;;;;9.20;8.30;;;28.80;98.60;;;;;;5008897;28;20478;-75
2022/07/23 10:50:44;;;;;;;9.00;8.07;;;28.70;96.80;;;;;;4990842;28;20439;-76
2022/07/23 10:53:12;;;;;;;8.83;7.63;;;28.60;99.10;;;;;;4991488;28;20792;-76
2022/07/23 10:55:38;;;;;;;7.93;7.13;;;28.80;97.70;;;;;;5008667;28;20424;-76
2022/07/23 10:58:05;;;;;;;8.10;7.30;;;28.90;96.60;;;;;;5008506;28;20475;-76
2022/07/23 11:00:33;;;;;;;8.97;7.57;;;29.00;98.10;;;;;;4991034;28;20195;-75
2022/07/23 11:03:01;;;;;;;7.90;7.10;;;29.20;97.70;;;;;;5008859;28;20424;-76
2022/07/23 11:05:47;;;;;;;9.70;7.37;;;29.40;96.20;;;;;;5008487;28;20424;-76
2022/07/23 11:08:16;;;;;;;8.70;7.90;;;29.30;95.50;;;;;;4989841;28;20479;-75
2022/07/23 11:10:52;;;;;;;8.30;7.60;;;29.10;96.30;;;;;;5008183;28;20623;-76
2022/07/23 11:13:41;;;;;;;10.57;8.40;;;29.10;95.50;;;;;;4990429;28;20471;-75
2022/07/23 11:16:15;;;;;;;8.43;7.60;;;28.90;98.00;;;;;;5007988;28;20429;-75
2022/07/23 11:18:43;;;;;;;8.93;7.97;;;28.90;96.60;;;;;;5010338;28;20510;-75
2022/07/23 11:21:26;;;;;;;8.73;7.37;;;29.00;95.50;;;;;;5011674;28;20528;-77
2022/07/23 11:24:03;;;;;;;10.40;7.10;;;29.10;95.50;;;;;;5012030;28;20431;-76
2022/07/23 11:26:39;;;;;;;8.73;7.17;;;29.20;95.70;;;;;;4994128;28;20434;-75
2022/07/23 11:29:36;;;;;;;10.63;7.37;;;29.30;94.60;;;;;;5011261;28;20490;-76
2022/07/23 11:32:06;;;;;;;8.40;7.60;;;29.40;95.40;;;;;;5011279;28;20451;-75
2022/07/23 11:34:38;;;;;;;7.93;7.33;;;29.40;94.10;;;;;;5012131;28;20914;-76
2022/07/23 11:37:07;;;;;;;10.10;6.90;;;29.60;94.50;;;;;;5011152;28;20451;-76
2022/07/23 11:39:34;;;;;;;8.43;7.30;;;29.70;95.20;;;;;;5011343;28;20432;-76
2022/07/23 11:42:01;;;;;;;8.90;8.07;;;29.60;95.50;;;;;;5011328;28;20428;-76
2022/07/23 11:44:32;;;;;;;8.90;7.73;;;29.60;94.90;;;;;;5011327;28;20489;-76
2022/07/23 11:47:07;;;;;;;7.77;6.73;;;29.70;94.50;;;;;;4993608;28;20450;-76
2022/07/23 11:49:33;;;;;;;8.83;7.20;;;29.60;94.10;;;;;;4993062;28;20916;-76
2022/07/23 11:52:07;;;;;;;8.10;7.27;;;29.60;95.10;;;;;;4993249;28;20420;-76
2022/07/23 11:54:36;;;;;;;8.20;7.40;;;29.60;94.70;;;;;;4977273;28;20482;-75
2022/07/23 11:57:03;;;;;;;9.43;7.97;;;29.70;93.40;;;;;;4993158;28;20444;-75
2022/07/23 11:59:33;;;;;;;8.17;7.47;;;29.70;94.20;;;;;;4993388;28;20535;-75
2022/07/23 12:02:04;;;;;;;9.80;7.57;;;29.80;94.30;;;;;;5011158;28;20428;-75
2022/07/23 12:04:44;;;;;;;7.70;7.00;;;29.90;93.70;;;;;;5011031;28;20415;-75
2022/07/23 12:07:30;;;;;;;7.80;7.10;;;30.10;93.60;;;;;;4992859;28;20447;-74
2022/07/23 12:10:01;;;;;;;8.40;7.70;;;30.10;92.40;;;;;;5010766;28;20463;-75
2022/07/23 12:12:26;;;;;;;8.63;7.40;;;30.10;92.20;;;;;;5010914;28;20573;-75
2022/07/23 12:14:58;;;;;;;8.00;7.30;;;30.10;91.90;;;;;;4976608;28;21119;-75
2022/07/23 12:17:32;;;;;;;8.07;7.27;;;30.10;91.60;;;;;;5010395;28;20267;-75
2022/07/23 12:20:00;;;;;;;10.33;7.60;;;30.20;92.20;;;;;;5010725;28;20489;-75
2022/07/23 12:22:35;;;;;;;8.10;7.50;;;30.30;92.20;;;;;;5010673;28;20490;-75
2022/07/23 12:25:21;;;;;;;8.70;7.40;;;30.30;90.90;;;;;;5010679;28;20424;-74
2022/07/23 12:28:17;;;;;;;8.77;7.83;;;30.40;90.70;;;;;;5009755;28;20456;-75
2022/07/23 12:30:52;;;;;;;7.87;7.13;;;30.60;91.00;;;;;;4992990;28;20946;-75
2022/07/23 12:33:29;;;;;;;8.27;6.80;;;30.40;88.90;;;;;;4992382;28;20442;-75
2022/07/23 12:35:57;;;;;;;7.50;6.90;;;30.00;90.30;;;;;;5009963;28;21046;-75
2022/07/23 12:38:24;;;;;;;8.67;7.80;;;29.80;91.20;;;;;;4992087;28;20463;-75
2022/07/23 12:40:53;;;;;;;11.70;7.90;;;29.70;91.40;;;;;;5009509;28;20440;-75
2022/07/23 12:43:29;;;;;;;9.20;7.97;;;29.40;91.10;;;;;;4991937;28;21303;-75
2022/07/23 12:45:57;;;;;;;8.50;7.70;;;29.10;92.20;;;;;;5010384;28;20501;-75
2022/07/23 12:48:54;;;;;;;7.97;7.33;;;29.10;94.90;;;;;;5010074;28;20577;-78
2022/07/23 12:51:21;;;;;;;8.20;6.60;;;29.20;92.80;;;;;;4985416;28;20470;-75
2022/07/23 12:53:48;;;;;;;8.80;6.77;;;29.40;92.80;;;;;;4992364;28;20427;-75